Time;durP1;ratioP1;P1;durP2;ratioP2;P2;SDS_P1;SDS_P2;PMS_P1;PMS_P2;Temp;Humidity;BMP_temperature;BMP_pressure;BME280_temperature;BME280_humidity;BME280_pressure;Samples;Min_cycle;Max_cycle;Signal;HPM_P1;HPM_P2
2023/03/17 00:01:20;;;;;;;24.92;16.17;;;28.90;78.90;;;;;;5005056;28;20034;-51
2023/03/17 00:03:49;;;;;;;22.35;15.65;;;28.90;78.80;;;;;;5004949;28;20054;-48
2023/03/17 00:06:20;;;;;;;22.23;15.85;;;28.90;78.60;;;;;;5019790;28;20042;-52
2023/03/17 00:08:47;;;;;;;22.20;15.47;;;28.90;78.60;;;;;;5024028;28;20214;-44
2023/03/17 00:11:16;;;;;;;27.77;15.52;;;28.90;78.20;;;;;;5024256;28;20180;-45
2023/03/17 00:13:43;;;;;;;20.67;14.98;;;28.80;78.20;;;;;;5023985;28;20238;-50
2023/03/17 00:16:26;;;;;;;19.73;14.88;;;28.80;78.10;;;;;;5023996;28;20085;-47
2023/03/17 00:18:53;;;;;;;;;;;28.80;77.80;;;;;;5024506;28;20052;-50
2023/03/17 00:21:29;;;;;;;22.60;14.52;;;28.80;77.80;;;;;;5023988;28;19905;-47
2023/03/17 00:24:00;;;;;;;20.92;14.32;;;28.80;77.70;;;;;;5024397;28;20056;-47
2023/03/17 00:26:27;;;;;;;17.13;14.00;;;28.70;77.40;;;;;;5024823;28;20025;-47
2023/03/17 00:28:54;;;;;;;21.42;14.73;;;28.70;77.50;;;;;;5023887;28;20045;-45
2023/03/17 00:31:27;;;;;;;18.35;14.85;;;28.70;77.30;;;;;;5024411;28;20306;-50
2023/03/17 00:33:54;;;;;;;23.02;17.88;;;28.70;77.30;;;;;;5024310;28;20029;-45
2023/03/17 00:36:27;;;;;;;24.88;17.40;;;28.70;76.90;;;;;;5023653;28;20372;-50
2023/03/17 00:38:54;;;;;;;27.85;16.55;;;28.70;77.00;;;;;;5023907;28;20025;-45
2023/03/17 00:41:21;;;;;;;39.78;16.90;;;28.70;76.70;;;;;;5024287;28;20402;-48
2023/03/17 00:43:49;;;;;;;27.08;17.30;;;28.70;76.60;;;;;;5023883;28;20072;-54
2023/03/17 00:46:37;;;;;;;27.15;15.00;;;28.70;76.30;;;;;;5024260;28;20084;-46
2023/03/17 00:49:18;;;;;;;25.23;15.13;;;28.70;75.80;;;;;;5023548;28;20042;-45
2023/03/17 00:51:46;;;;;;;18.35;13.93;;;28.60;75.70;;;;;;5023815;28;20094;-47
2023/03/17 00:54:14;;;;;;;20.63;14.23;;;28.60;75.60;;;;;;5026624;28;20018;-45
2023/03/17 00:56:42;;;;;;;20.25;14.55;;;28.60;75.50;;;;;;5027695;28;20028;-45
2023/03/17 00:59:20;;;;;;;19.75;13.85;;;28.60;75.20;;;;;;5027459;28;20241;-49
2023/03/17 01:01:47;;;;;;;18.33;13.85;;;28.50;75.00;;;;;;5027541;28;20030;-48
2023/03/17 01:04:14;;;;;;;18.27;13.43;;;28.50;74.80;;;;;;5027602;28;20037;-47
2023/03/17 01:06:42;;;;;;;15.30;13.02;;;28.50;75.00;;;;;;5027100;28;20030;-51
2023/03/17 01:09:13;;;;;;;17.10;13.07;;;28.50;74.70;;;;;;5019367;28;20072;-45
2023/03/17 01:11:40;;;;;;;19.65;13.40;;;28.50;74.70;;;;;;5014506;28;20046;-45
2023/03/17 01:14:08;;;;;;;18.98;13.85;;;28.50;74.60;;;;;;5007404;28;20097;-52
2023/03/17 01:16:35;;;;;;;19.92;13.55;;;28.50;74.50;;;;;;5007818;28;20082;-45
2023/03/17 01:19:01;;;;;;;18.70;13.55;;;28.50;74.70;;;;;;5007422;28;20059;-48
2023/03/17 01:21:28;;;;;;;19.92;14.63;;;28.50;74.30;;;;;;5007607;28;20080;-47
2023/03/17 01:23:55;;;;;;;19.73;14.38;;;28.50;74.40;;;;;;5007293;28;20027;-48
2023/03/17 01:26:22;;;;;;;18.90;13.07;;;28.40;74.10;;;;;;5007661;28;20085;-48
2023/03/17 01:28:49;;;;;;;19.02;13.27;;;28.40;74.20;;;;;;5006403;28;20026;-50
2023/03/17 01:31:16;;;;;;;19.10;14.20;;;28.50;74.40;;;;;;5007597;28;20022;-53
2023/03/17 01:33:44;;;;;;;17.70;13.27;;;28.40;74.30;;;;;;5007159;28;20081;-44
2023/03/17 01:36:11;;;;;;;15.43;13.35;;;28.40;74.00;;;;;;5007418;28;20094;-49
2023/03/17 01:38:39;;;;;;;14.98;13.48;;;28.40;74.20;;;;;;5007035;28;20023;-46
2023/03/17 01:41:06;;;;;;;16.00;12.82;;;28.40;74.20;;;;;;5006846;28;20053;-45
2023/03/17 01:43:33;;;;;;;18.35;13.07;;;28.40;74.20;;;;;;5006523;28;20176;-53
2023/03/17 01:46:26;;;;;;;14.93;13.27;;;28.40;74.30;;;;;;5009609;28;20026;-50
2023/03/17 01:49:18;;;;;;;19.50;13.27;;;28.40;74.20;;;;;;5023432;28;20021;-46
2023/03/17 01:51:57;;;;;;;17.27;13.57;;;28.40;73.90;;;;;;5026357;28;20064;-49
2023/03/17 01:54:47;;;;;;;16.98;12.95;;;28.40;74.00;;;;;;5017557;28;20025;-53
2023/03/17 01:57:43;;;;;;;21.65;13.05;;;28.40;73.80;;;;;;5016845;28;20041;-47
2023/03/17 02:00:16;;;;;;;143.98;25.38;;;28.20;72.70;;;;;;5018318;28;20022;-45
2023/03/17 02:02:51;;;;;;;58.70;24.95;;;28.00;73.70;;;;;;5015078;28;20034;-43
2023/03/17 02:05:25;;;;;;;44.33;25.90;;;27.80;73.70;;;;;;5015375;28;20026;-43
2023/03/17 02:07:53;;;;;;;40.80;22.98;;;27.80;73.30;;;;;;5012394;28;20026;-42
2023/03/17 02:10:21;;;;;;;30.20;17.17;;;27.80;73.50;;;;;;5011182;28;20077;-47
2023/03/17 02:12:54;;;;;;;24.67;14.70;;;27.80;73.70;;;;;;5006433;28;20026;-43
2023/03/17 02:15:21;;;;;;;21.20;13.93;;;27.80;73.90;;;;;;5008246;28;20056;-47
2023/03/17 02:17:48;;;;;;;18.88;12.90;;;27.80;74.60;;;;;;5017971;28;20038;-48
2023/03/17 02:20:18;;;;;;;20.20;12.57;;;27.70;73.80;;;;;;5006142;28;20333;-49
2023/03/17 02:22:51;;;;;;;24.33;14.00;;;27.80;73.80;;;;;;5017821;28;20211;-45
2023/03/17 02:25:20;;;;;;;21.10;15.48;;;27.80;74.90;;;;;;5013445;28;20022;-49
2023/03/17 02:27:51;;;;;;;23.23;16.58;;;27.80;74.60;;;;;;5024984;28;20111;-44
2023/03/17 02:30:22;;;;;;;19.85;15.60;;;27.90;74.50;;;;;;5009913;28;20057;-48
2023/03/17 02:32:48;;;;;;;21.15;16.13;;;28.00;74.80;;;;;;5014985;28;20049;-44
2023/03/17 02:35:16;;;;;;;21.02;16.25;;;28.10;74.60;;;;;;5014370;28;20018;-52
2023/03/17 02:37:43;;;;;;;22.10;15.80;;;28.10;74.30;;;;;;5016506;28;20053;-48
2023/03/17 02:40:12;;;;;;;21.55;14.73;;;28.20;74.30;;;;;;5016417;28;20251;-50
2023/03/17 02:42:40;;;;;;;16.58;14.65;;;28.20;74.30;;;;;;5012187;28;20062;-46
2023/03/17 02:45:08;;;;;;;24.83;15.00;;;28.30;74.20;;;;;;5017151;28;20025;-47
2023/03/17 02:47:35;;;;;;;25.48;15.20;;;28.30;74.30;;;;;;5013728;28;20092;-48
2023/03/17 02:50:03;;;;;;;18.98;15.10;;;28.30;73.90;;;;;;5017338;28;20290;-53
2023/03/17 02:52:30;;;;;;;25.83;16.67;;;28.30;74.10;;;;;;5020904;28;20028;-44
2023/03/17 02:54:57;;;;;;;23.05;15.52;;;28.30;74.00;;;;;;5019067;28;20081;-46
2023/03/17 02:57:24;;;;;;;23.58;15.73;;;28.30;74.00;;;;;;5016123;28;20033;-49
2023/03/17 02:59:50;;;;;;;21.85;14.80;;;28.30;73.90;;;;;;5019768;28;20024;-47
2023/03/17 03:02:17;;;;;;;15.80;13.63;;;28.30;73.90;;;;;;4995456;28;20188;-47
2023/03/17 03:04:45;;;;;;;19.63;14.45;;;28.30;74.10;;;;;;5012625;28;20022;-44
2023/03/17 03:07:11;;;;;;;20.10;14.90;;;28.40;74.10;;;;;;5014551;28;20030;-45
2023/03/17 03:09:38;;;;;;;18.40;14.23;;;28.30;73.90;;;;;;5024862;28;20014;-43
2023/03/17 03:12:08;;;;;;;18.20;14.07;;;28.40;74.10;;;;;;5013582;28;20085;-42
2023/03/17 03:14:34;;;;;;;18.27;13.90;;;28.40;73.90;;;;;;5010868;28;20020;-47
2023/03/17 03:17:01;;;;;;;21.52;14.32;;;28.40;74.00;;;;;;5016397;28;20022;-45
2023/03/17 03:19:28;;;;;;;17.63;13.73;;;28.40;74.00;;;;;;5013818;28;20369;-47
2023/03/17 03:21:54;;;;;;;17.80;12.70;;;28.30;73.80;;;;;;5005328;28;20137;-44
2023/03/17 03:24:24;;;;;;;17.73;13.35;;;28.30;73.90;;;;;;5008001;28;20211;-44
2023/03/17 03:26:51;;;;;;;17.70;13.73;;;28.30;74.00;;;;;;5011757;28;20049;-44
2023/03/17 03:29:18;;;;;;;14.18;12.65;;;28.30;74.10;;;;;;5013066;28;20048;-48
2023/03/17 03:31:46;;;;;;;16.20;13.52;;;28.30;74.10;;;;;;5015011;28;20034;-50
2023/03/17 03:34:14;;;;;;;16.42;12.90;;;28.30;74.20;;;;;;5012780;28;20010;-48
2023/03/17 03:36:40;;;;;;;18.77;13.77;;;28.30;73.90;;;;;;5013712;28;20045;-45
2023/03/17 03:39:07;;;;;;;19.90;13.75;;;28.30;73.90;;;;;;5011861;28;20249;-44
2023/03/17 03:41:34;;;;;;;14.48;13.02;;;28.30;73.60;;;;;;5009823;28;20044;-45
2023/03/17 03:44:01;;;;;;;17.45;14.25;;;28.30;73.60;;;;;;5007033;28;20026;-47
2023/03/17 03:46:30;;;;;;;16.40;13.57;;;28.30;73.50;;;;;;5016564;28;20102;-48
2023/03/17 03:48:56;;;;;;;17.55;13.73;;;28.30;73.60;;;;;;5014842;28;20028;-43
2023/03/17 03:51:26;;;;;;;18.42;13.52;;;28.20;73.50;;;;;;5006168;28;20029;-44
2023/03/17 03:53:52;;;;;;;19.08;14.60;;;28.20;73.50;;;;;;5008384;28;20050;-42
2023/03/17 03:56:21;;;;;;;18.35;13.27;;;28.20;73.40;;;;;;5014611;28;20014;-46
2023/03/17 03:58:50;;;;;;;17.80;13.80;;;28.20;73.30;;;;;;5009822;28;20034;-46
2023/03/17 04:01:17;;;;;;;15.32;13.57;;;28.20;73.30;;;;;;5015071;28;20018;-47
2023/03/17 04:03:46;;;;;;;18.23;13.95;;;28.20;73.30;;;;;;5009589;28;20053;-46
2023/03/17 04:06:12;;;;;;;14.63;13.10;;;28.10;73.10;;;;;;5015024;28;20022;-42
2023/03/17 04:08:39;;;;;;;21.38;13.70;;;28.10;73.00;;;;;;5014927;28;20029;-49
2023/03/17 04:11:05;;;;;;;15.23;12.80;;;28.10;73.00;;;;;;5013312;28;20026;-53
2023/03/17 04:13:32;;;;;;;19.80;13.65;;;28.10;73.00;;;;;;5008713;28;20036;-46
2023/03/17 04:16:00;;;;;;;15.80;13.80;;;28.10;72.80;;;;;;5013816;28;20218;-49
2023/03/17 04:18:27;;;;;;;15.50;13.38;;;28.10;72.80;;;;;;5009444;28;20102;-51
2023/03/17 04:20:53;;;;;;;18.90;14.10;;;28.10;72.90;;;;;;5014750;28;20049;-45
2023/03/17 04:23:20;;;;;;;15.98;12.77;;;28.10;72.80;;;;;;5011331;28;20035;-45
2023/03/17 04:25:50;;;;;;;15.80;13.05;;;28.10;72.80;;;;;;5011465;28;20314;-45
2023/03/17 04:28:19;;;;;;;14.82;13.23;;;28.10;72.80;;;;;;5013381;28;20061;-46
2023/03/17 04:30:46;;;;;;;14.85;13.02;;;28.00;72.70;;;;;;5017368;28;20018;-43
2023/03/17 04:33:12;;;;;;;15.38;13.13;;;28.00;72.70;;;;;;5017169;28;20064;-47
2023/03/17 04:35:40;;;;;;;15.27;13.13;;;28.00;72.80;;;;;;5014559;28;20026;-44
2023/03/17 04:38:07;;;;;;;15.18;13.10;;;28.00;72.90;;;;;;5015456;28;20097;-42
2023/03/17 04:40:34;;;;;;;14.43;12.68;;;28.00;72.90;;;;;;4997048;28;20026;-47
2023/03/17 04:43:01;;;;;;;15.43;13.45;;;28.00;73.10;;;;;;5017733;28;20030;-43
2023/03/17 04:45:27;;;;;;;14.85;12.95;;;27.90;73.00;;;;;;5017918;28;20040;-42
2023/03/17 04:47:54;;;;;;;18.67;13.30;;;28.00;72.90;;;;;;5018481;28;20085;-45
2023/03/17 04:50:21;;;;;;;18.88;13.60;;;27.90;72.70;;;;;;5019103;28;20097;-40
2023/03/17 04:52:47;;;;;;;18.67;13.32;;;27.90;72.70;;;;;;5007637;28;20026;-42
2023/03/17 04:55:14;;;;;;;18.65;13.02;;;27.90;72.80;;;;;;5018555;28;20052;-49
2023/03/17 04:57:40;;;;;;;16.02;13.52;;;27.90;72.70;;;;;;5007979;28;20098;-50
2023/03/17 05:00:08;;;;;;;15.45;13.77;;;27.90;72.40;;;;;;5014693;28;20025;-49
2023/03/17 05:02:37;;;;;;;15.00;13.48;;;27.90;72.60;;;;;;5018575;28;20037;-42
2023/03/17 05:05:05;;;;;;;15.15;13.43;;;27.90;72.50;;;;;;5023421;28;20369;-42
2023/03/17 05:07:31;;;;;;;15.57;12.57;;;27.90;72.30;;;;;;5020286;28;20210;-45
2023/03/17 05:09:58;;;;;;;14.88;13.38;;;27.90;72.40;;;;;;5020165;28;20242;-45
2023/03/17 05:12:24;;;;;;;15.27;13.77;;;27.90;72.60;;;;;;5019619;28;20364;-43
2023/03/17 05:14:51;;;;;;;15.05;13.35;;;27.90;72.70;;;;;;5016273;28;20053;-42
2023/03/17 05:17:17;;;;;;;15.40;13.50;;;27.90;72.60;;;;;;5006999;28;20369;-43
2023/03/17 05:19:45;;;;;;;16.13;13.30;;;27.90;72.50;;;;;;5018162;28;20026;-41
2023/03/17 05:22:12;;;;;;;16.35;13.43;;;27.90;72.70;;;;;;5007409;28;20032;-47
2023/03/17 05:24:38;;;;;;;16.17;13.30;;;27.90;72.70;;;;;;5007227;28;20077;-42
2023/03/17 05:27:05;;;;;;;18.60;14.13;;;27.90;72.70;;;;;;5010824;28;20030;-47
2023/03/17 05:29:31;;;;;;;18.70;14.02;;;27.90;72.70;;;;;;5019909;28;20336;-47
2023/03/17 05:31:58;;;;;;;17.60;13.73;;;27.90;72.80;;;;;;5010902;28;20034;-42
2023/03/17 05:34:25;;;;;;;15.15;13.50;;;27.90;72.80;;;;;;5007063;28;20014;-47
2023/03/17 05:36:52;;;;;;;18.13;14.15;;;27.90;73.20;;;;;;5006641;28;20279;-44
2023/03/17 05:39:19;;;;;;;18.00;14.80;;;27.90;73.00;;;;;;5016425;28;20061;-52
2023/03/17 05:41:46;;;;;;;18.02;14.75;;;27.90;73.40;;;;;;5014063;28;20069;-53
2023/03/17 05:44:12;;;;;;;17.85;15.27;;;27.90;73.40;;;;;;5019614;28;20076;-44
2023/03/17 05:46:39;;;;;;;16.92;14.55;;;27.90;73.40;;;;;;5007103;28;20029;-42
2023/03/17 05:49:06;;;;;;;17.00;14.30;;;27.90;73.40;;;;;;5006734;28;20097;-44
2023/03/17 05:51:33;;;;;;;18.40;13.70;;;27.90;73.40;;;;;;5006941;28;20240;-47
2023/03/17 05:54:00;;;;;;;18.15;15.07;;;27.90;73.10;;;;;;5006588;28;20085;-47
2023/03/17 05:56:32;;;;;;;18.35;15.23;;;27.90;73.00;;;;;;5006839;28;20022;-48
2023/03/17 05:59:00;;;;;;;16.45;14.60;;;27.90;73.60;;;;;;5006572;28;20338;-44
2023/03/17 06:01:27;;;;;;;17.63;14.40;;;27.90;73.20;;;;;;5006328;28;20053;-43
2023/03/17 06:03:54;;;;;;;17.95;14.65;;;27.90;73.20;;;;;;5006536;28;20272;-42
2023/03/17 06:06:21;;;;;;;21.17;14.73;;;27.80;73.20;;;;;;5006441;28;20025;-43
2023/03/17 06:08:48;;;;;;;18.20;14.48;;;27.80;73.50;;;;;;5006187;28;20035;-43
2023/03/17 06:11:14;;;;;;;16.50;14.45;;;27.90;73.60;;;;;;5006291;28;20022;-46
2023/03/17 06:13:41;;;;;;;19.63;15.25;;;27.90;73.70;;;;;;5006353;28;20026;-43
2023/03/17 06:16:08;;;;;;;16.45;13.85;;;27.80;73.70;;;;;;5006152;28;20049;-46
2023/03/17 06:18:35;;;;;;;18.55;14.50;;;27.80;73.90;;;;;;5006637;28;20307;-45
2023/03/17 06:21:02;;;;;;;18.50;14.73;;;27.80;73.90;;;;;;4989165;28;20022;-43
2023/03/17 06:23:28;;;;;;;16.98;13.82;;;27.80;73.90;;;;;;5006452;28;20322;-45
2023/03/17 06:25:55;;;;;;;19.00;14.18;;;27.80;73.80;;;;;;5006349;28;20048;-44
2023/03/17 06:28:21;;;;;;;15.98;14.38;;;27.80;73.90;;;;;;5006408;28;20299;-43
2023/03/17 06:30:48;;;;;;;17.88;14.75;;;27.80;73.90;;;;;;5006007;28;20029;-46
2023/03/17 06:33:16;;;;;;;16.92;14.95;;;27.80;74.10;;;;;;5006280;28;20034;-44
2023/03/17 06:35:43;;;;;;;21.25;14.57;;;27.80;74.10;;;;;;5005824;28;20026;-44
2023/03/17 06:38:10;;;;;;;19.40;15.05;;;27.80;73.90;;;;;;5005896;28;20085;-40
2023/03/17 06:40:37;;;;;;;18.23;15.60;;;27.80;74.00;;;;;;5005645;28;20550;-42
2023/03/17 06:43:03;;;;;;;18.15;14.85;;;27.80;74.00;;;;;;5006041;28;20069;-45
2023/03/17 06:45:31;;;;;;;18.25;15.10;;;27.80;73.80;;;;;;5005776;28;20030;-41
2023/03/17 06:47:58;;;;;;;17.20;15.43;;;27.80;73.80;;;;;;5006000;28;20319;-43
2023/03/17 06:50:25;;;;;;;19.48;14.40;;;27.80;74.30;;;;;;5005410;28;20082;-42
2023/03/17 06:52:51;;;;;;;18.35;14.25;;;27.80;73.80;;;;;;5005849;28;20022;-44
2023/03/17 06:55:18;;;;;;;16.20;14.50;;;27.80;73.90;;;;;;5005754;28;20030;-47
2023/03/17 06:57:44;;;;;;;19.13;14.43;;;27.80;73.90;;;;;;5005766;28;20029;-47
2023/03/17 07:00:12;;;;;;;18.17;14.88;;;27.80;73.90;;;;;;5005451;28;20023;-45
2023/03/17 07:02:40;;;;;;;17.52;13.98;;;27.80;73.90;;;;;;5005517;28;20249;-46
2023/03/17 07:05:07;;;;;;;17.80;13.75;;;27.80;73.80;;;;;;5005336;28;20046;-46
2023/03/17 07:07:34;;;;;;;15.00;13.50;;;27.80;73.70;;;;;;5005421;28;20022;-45
2023/03/17 07:10:00;;;;;;;15.25;13.65;;;27.80;73.70;;;;;;5014391;28;20030;-47
2023/03/17 07:12:27;;;;;;;16.45;14.75;;;27.80;73.90;;;;;;5025052;28;20028;-44
2023/03/17 07:14:54;;;;;;;18.08;13.70;;;27.80;73.60;;;;;;5024789;28;20032;-47
2023/03/17 07:17:20;;;;;;;15.95;14.35;;;27.80;73.80;;;;;;5024804;28;20022;-46
2023/03/17 07:19:47;;;;;;;17.58;14.05;;;27.80;73.70;;;;;;5024761;28;20022;-44
2023/03/17 07:22:13;;;;;;;17.88;14.27;;;27.70;73.60;;;;;;5024658;28;20330;-51
2023/03/17 07:24:41;;;;;;;15.25;13.65;;;27.70;73.60;;;;;;5024688;28;20076;-47
2023/03/17 07:27:08;;;;;;;16.80;14.18;;;27.80;73.80;;;;;;5024837;28;20030;-41
2023/03/17 07:29:35;;;;;;;19.23;14.48;;;27.70;73.60;;;;;;5024426;28;20025;-44
2023/03/17 07:32:04;;;;;;;16.17;13.85;;;27.70;73.70;;;;;;5024443;28;20033;-47
2023/03/17 07:34:31;;;;;;;15.15;13.63;;;27.70;73.80;;;;;;5024421;28;20314;-42
2023/03/17 07:36:58;;;;;;;15.98;13.77;;;27.70;73.70;;;;;;5024487;28;20097;-41
2023/03/17 07:39:24;;;;;;;17.13;13.60;;;27.70;73.80;;;;;;5024180;28;20089;-47
2023/03/17 07:41:53;;;;;;;19.02;14.10;;;27.70;73.80;;;;;;5024286;28;20062;-43
2023/03/17 07:44:21;;;;;;;15.10;13.50;;;27.70;73.90;;;;;;5024341;28;20026;-44
2023/03/17 07:46:49;;;;;;;17.70;14.40;;;27.70;74.00;;;;;;5024197;28;20029;-47
2023/03/17 07:49:16;;;;;;;16.30;13.80;;;27.70;74.10;;;;;;5024162;28;20065;-45
2023/03/17 07:51:42;;;;;;;16.73;13.55;;;27.70;74.20;;;;;;5024233;28;20410;-58
2023/03/17 07:54:10;;;;;;;15.63;13.88;;;27.70;74.20;;;;;;5024141;28;20076;-51
2023/03/17 07:56:38;;;;;;;17.98;14.18;;;27.70;74.10;;;;;;5024167;28;20044;-45
2023/03/17 07:59:06;;;;;;;15.75;13.70;;;27.70;74.00;;;;;;5024166;28;20322;-46
2023/03/17 08:01:34;;;;;;;15.90;14.23;;;27.60;74.00;;;;;;5024118;28;20303;-46
2023/03/17 08:04:00;;;;;;;16.42;13.82;;;27.70;74.20;;;;;;5023514;28;20028;-48
2023/03/17 08:06:27;;;;;;;15.43;13.85;;;27.60;74.10;;;;;;5023948;28;20064;-49
2023/03/17 08:08:54;;;;;;;14.98;13.43;;;27.60;74.10;;;;;;5023770;28;20041;-45
2023/03/17 08:11:22;;;;;;;16.15;13.93;;;27.60;74.20;;;;;;5023955;28;20040;-46
2023/03/17 08:13:48;;;;;;;18.52;13.95;;;27.60;74.10;;;;;;5023953;28;20032;-43
2023/03/17 08:16:15;;;;;;;16.88;14.13;;;27.60;74.10;;;;;;5023814;28;20018;-44
2023/03/17 08:18:42;;;;;;;18.17;14.32;;;27.60;74.30;;;;;;5023876;28;20222;-45
2023/03/17 08:21:09;;;;;;;15.57;13.88;;;27.60;74.30;;;;;;5023886;28;20033;-48
2023/03/17 08:23:39;;;;;;;16.25;13.82;;;27.60;74.20;;;;;;5024211;28;20187;-47
2023/03/17 08:26:05;;;;;;;16.23;14.45;;;27.70;74.20;;;;;;5006382;28;20029;-45
2023/03/17 08:28:32;;;;;;;15.27;13.68;;;27.60;74.40;;;;;;5024217;28;20097;-45
2023/03/17 08:31:18;;;;;;;15.98;13.88;;;27.60;74.20;;;;;;5023780;28;20030;-45
2023/03/17 08:33:51;;;;;;;15.48;13.88;;;27.60;74.20;;;;;;5023936;28;20281;-42
2023/03/17 08:36:19;;;;;;;18.13;14.30;;;27.60;74.10;;;;;;5023784;28;20029;-45
2023/03/17 08:38:47;;;;;;;19.08;14.48;;;27.60;74.20;;;;;;5023906;28;20022;-47
2023/03/17 08:41:17;;;;;;;16.67;14.05;;;27.60;74.10;;;;;;5023620;28;20352;-51
2023/03/17 08:43:44;;;;;;;16.65;13.63;;;27.60;73.80;;;;;;5023653;28;20310;-55
2023/03/17 08:46:19;;;;;;;14.77;13.13;;;27.60;73.80;;;;;;5023766;28;20018;-45
2023/03/17 08:48:47;;;;;;;15.45;13.85;;;27.60;73.80;;;;;;5023722;28;20246;-45
2023/03/17 08:51:15;;;;;;;15.43;13.60;;;27.70;73.90;;;;;;5023534;28;20022;-48
2023/03/17 08:53:41;;;;;;;16.08;14.38;;;27.60;73.90;;;;;;5023861;28;20025;-41
2023/03/17 08:56:08;;;;;;;17.70;14.20;;;27.60;73.90;;;;;;5023428;28;20014;-42
2023/03/17 08:58:38;;;;;;;16.55;14.70;;;27.60;73.90;;;;;;5024032;28;20040;-54
2023/03/17 09:01:05;;;;;;;17.15;13.68;;;27.60;74.00;;;;;;5023512;28;20029;-42
2023/03/17 09:03:33;;;;;;;18.35;14.25;;;27.60;74.00;;;;;;5023923;28;20294;-42
2023/03/17 09:05:59;;;;;;;16.25;14.50;;;27.60;74.00;;;;;;5023437;28;20032;-50
2023/03/17 09:08:27;;;;;;;18.25;14.75;;;27.60;74.10;;;;;;5023405;28;20214;-47
2023/03/17 09:10:53;;;;;;;18.73;14.63;;;27.50;74.20;;;;;;5023403;28;20026;-47
2023/03/17 09:13:21;;;;;;;17.00;14.35;;;27.50;74.40;;;;;;5024082;28;20037;-44
2023/03/17 09:15:48;;;;;;;16.00;14.40;;;27.50;74.50;;;;;;5026979;28;20204;-43
2023/03/17 09:18:14;;;;;;;18.17;15.05;;;27.50;74.70;;;;;;5027342;28;20357;-45
2023/03/17 09:20:41;;;;;;;18.35;14.73;;;27.50;75.10;;;;;;5027222;28;20038;-44
2023/03/17 09:23:10;;;;;;;19.75;14.85;;;27.50;75.30;;;;;;5027268;28;20021;-44
2023/03/17 09:25:38;;;;;;;19.23;15.10;;;27.50;75.40;;;;;;5026935;28;20377;-51
2023/03/17 09:28:06;;;;;;;16.63;14.90;;;27.50;75.50;;;;;;5027096;28;20054;-43
2023/03/17 09:30:32;;;;;;;17.25;14.68;;;27.50;75.60;;;;;;5026719;28;20026;-45
2023/03/17 09:32:59;;;;;;;17.98;14.90;;;27.50;75.70;;;;;;5026915;28;20071;-42
2023/03/17 09:35:27;;;;;;;18.48;14.98;;;27.50;75.80;;;;;;5026701;28;20026;-51
2023/03/17 09:37:54;;;;;;;17.92;14.70;;;27.50;75.90;;;;;;5027040;28;20018;-47
2023/03/17 09:40:26;;;;;;;16.50;14.73;;;27.40;75.90;;;;;;5026319;28;20026;-42
2023/03/17 09:43:15;;;;;;;21.10;15.15;;;27.40;75.80;;;;;;5026669;28;20044;-41
2023/03/17 09:45:43;;;;;;;21.95;15.57;;;27.40;75.90;;;;;;5026392;28;20332;-40
2023/03/17 09:48:38;;;;;;;21.65;14.55;;;27.40;75.90;;;;;;5026895;28;20033;-46
2023/03/17 09:51:13;;;;;;;18.77;14.27;;;27.40;76.00;;;;;;5026391;28;20024;-48
2023/03/17 09:54:01;;;;;;;16.33;14.40;;;27.40;75.90;;;;;;5026278;28;20022;-43
2023/03/17 09:56:31;;;;;;;17.75;15.80;;;27.40;75.80;;;;;;5019340;28;20023;-46
2023/03/17 09:59:03;;;;;;;16.98;15.10;;;27.40;75.50;;;;;;5012777;28;20035;-41
2023/03/17 10:01:31;;;;;;;16.63;14.90;;;27.40;75.50;;;;;;5008326;28;20060;-41
2023/03/17 10:03:58;;;;;;;20.05;15.43;;;27.40;75.40;;;;;;5015096;28;20027;-43
2023/03/17 10:06:48;;;;;;;21.38;15.32;;;27.40;75.20;;;;;;5006434;28;20026;-46
2023/03/17 10:09:55;;;;;;;20.02;15.30;;;27.40;75.10;;;;;;5006490;28;20097;-41
2023/03/17 10:12:37;;;;;;;17.80;15.15;;;27.40;74.90;;;;;;4968379;28;20077;-48
2023/03/17 10:15:31;;;;;;;19.73;16.40;;;27.40;74.80;;;;;;5006436;28;20030;-47
2023/03/17 10:17:58;;;;;;;22.40;16.42;;;27.40;74.60;;;;;;5006668;28;20065;-45
2023/03/17 10:20:35;;;;;;;18.02;15.18;;;27.40;74.70;;;;;;5006070;28;20084;-46
2023/03/17 10:23:07;;;;;;;17.45;15.13;;;27.50;74.60;;;;;;5006579;28;20026;-46
2023/03/17 10:25:35;;;;;;;18.05;14.88;;;27.50;74.50;;;;;;5019410;28;20097;-47
2023/03/17 10:28:08;;;;;;;17.60;14.43;;;27.50;74.40;;;;;;5045739;28;20033;-45
2023/03/17 10:30:35;;;;;;;16.10;14.35;;;27.40;74.30;;;;;;5045495;28;20075;-48
2023/03/17 10:33:05;;;;;;;19.48;14.75;;;27.40;74.30;;;;;;5045713;28;20024;-43
2023/03/17 10:35:34;;;;;;;16.67;14.88;;;27.40;74.10;;;;;;5045627;28;20085;-47
2023/03/17 10:38:31;;;;;;;18.67;14.80;;;27.40;74.20;;;;;;5044164;28;20079;-44
2023/03/17 10:41:02;;;;;;;21.85;15.02;;;27.40;74.10;;;;;;5032659;28;20109;-44
2023/03/17 10:43:35;;;;;;;18.17;14.68;;;27.40;74.20;;;;;;5026403;28;20040;-44
2023/03/17 10:46:05;;;;;;;17.92;14.68;;;27.40;74.40;;;;;;5015858;28;20029;-44
2023/03/17 10:48:36;;;;;;;21.27;13.95;;;27.40;74.20;;;;;;5006541;28;20027;-49
2023/03/17 10:51:21;;;;;;;15.90;14.20;;;27.40;74.30;;;;;;5029725;28;20037;-46
2023/03/17 10:53:52;;;;;;;24.27;15.32;;;27.40;74.40;;;;;;5011286;28;20266;-50
2023/03/17 10:56:25;;;;;;;21.38;14.93;;;27.40;74.40;;;;;;5016211;28;20010;-44
2023/03/17 10:58:54;;;;;;;21.55;15.45;;;27.40;74.70;;;;;;5016632;28;20084;-52
2023/03/17 11:01:23;;;;;;;17.77;15.75;;;27.40;74.80;;;;;;5024856;28;20098;-46
2023/03/17 11:03:50;;;;;;;27.73;15.98;;;27.40;75.20;;;;;;5045133;28;20229;-49
2023/03/17 11:06:19;;;;;;;20.73;15.02;;;27.40;75.60;;;;;;5044682;28;20018;-48
2023/03/17 11:08:49;;;;;;;24.60;15.18;;;27.40;75.60;;;;;;5044577;28;20030;-43
2023/03/17 11:11:33;;;;;;;23.10;15.27;;;27.40;75.50;;;;;;5028482;28;20027;-42
2023/03/17 11:14:10;;;;;;;16.98;15.15;;;27.40;75.40;;;;;;5014128;28;20040;-49
2023/03/17 11:16:47;;;;;;;16.20;14.48;;;27.40;75.60;;;;;;5019538;28;20029;-48
2023/03/17 11:19:16;;;;;;;18.45;14.35;;;27.40;76.10;;;;;;5024721;28;20254;-43
2023/03/17 11:21:58;;;;;;;32.50;22.17;;;27.40;75.60;;;;;;5025346;28;20029;-44
2023/03/17 11:24:31;;;;;;;43.13;28.15;;;27.30;77.10;;;;;;5022355;28;20314;-53
2023/03/17 11:27:29;;;;;;;35.83;22.45;;;27.20;77.70;;;;;;5013995;28;20226;-50
2023/03/17 11:30:17;;;;;;;32.88;21.95;;;27.00;77.40;;;;;;5004901;28;20037;-52
2023/03/17 11:32:56;;;;;;;34.75;20.23;;;27.00;78.10;;;;;;5039061;28;20037;-48
2023/03/17 11:35:38;;;;;;;36.00;18.85;;;26.90;78.60;;;;;;5043686;28;20063;-46
2023/03/17 11:38:23;;;;;;;29.17;19.05;;;27.00;78.00;;;;;;5043313;28;20021;-51
2023/03/17 11:41:11;;;;;;;29.75;17.88;;;27.10;77.70;;;;;;5044233;28;20061;-56
2023/03/17 11:43:53;;;;;;;23.17;16.65;;;27.20;77.30;;;;;;5025281;28;20025;-53
2023/03/17 11:46:39;;;;;;;24.65;18.83;;;27.20;77.20;;;;;;5044168;28;20084;-55
2023/03/17 11:49:13;;;;;;;23.85;17.75;;;27.20;77.30;;;;;;5044820;28;20083;-54
2023/03/17 11:52:01;;;;;;;21.63;17.35;;;27.20;77.00;;;;;;5044137;28;20017;-54
2023/03/17 11:54:47;;;;;;;30.23;17.58;;;27.30;77.10;;;;;;5026267;28;20025;-54
2023/03/17 11:57:45;;;;;;;24.42;16.95;;;27.30;77.20;;;;;;5043826;28;20302;-49
2023/03/17 12:00:35;;;;;;;25.88;16.67;;;27.30;77.30;;;;;;4975753;28;20353;-50
2023/03/17 12:03:24;;;;;;;25.83;16.33;;;27.30;77.50;;;;;;5043902;28;20064;-46
2023/03/17 12:05:55;;;;;;;34.85;16.50;;;27.30;77.70;;;;;;5044025;28;20116;-45
2023/03/17 12:08:44;;;;;;;36.80;17.42;;;27.30;77.80;;;;;;5044015;28;20313;-51
2023/03/17 12:11:16;;;;;;;27.05;16.88;;;27.30;78.10;;;;;;5044153;28;20317;-54
2023/03/17 12:13:55;;;;;;;30.27;17.20;;;27.30;78.10;;;;;;5044395;28;20022;-55
2023/03/17 12:16:34;;;;;;;23.13;16.20;;;27.30;78.00;;;;;;5044072;28;20200;-53
2023/03/17 12:19:18;;;;;;;22.50;16.98;;;27.30;78.00;;;;;;5026449;28;20032;-47
2023/03/17 12:21:51;;;;;;;20.00;16.27;;;27.30;78.20;;;;;;5026262;28;20100;-47
2023/03/17 12:24:33;;;;;;;21.80;16.20;;;27.30;78.30;;;;;;5044195;28;20029;-49
2023/03/17 12:27:04;;;;;;;29.45;15.65;;;27.30;78.50;;;;;;5043739;28;20072;-51
2023/03/17 12:29:34;;;;;;;23.95;16.15;;;27.40;78.50;;;;;;5044103;28;20022;-54
2023/03/17 12:32:18;;;;;;;30.70;16.58;;;27.30;78.40;;;;;;5043813;28;20233;-47
2023/03/17 12:34:55;;;;;;;33.15;15.55;;;27.40;78.50;;;;;;5026496;28;20117;-48
2023/03/17 12:37:23;;;;;;;24.15;15.13;;;27.40;78.40;;;;;;5043477;28;20021;-51
2023/03/17 12:40:08;;;;;;;26.25;15.27;;;27.40;78.40;;;;;;5044070;28;20036;-45
2023/03/17 12:42:58;;;;;;;27.25;16.02;;;27.40;78.50;;;;;;5043437;28;20046;-46
2023/03/17 12:45:45;;;;;;;23.55;16.35;;;27.40;79.00;;;;;;5044104;28;20025;-45